Back to Top

Language: 

My Weather Underground Personal Weather Station Historical Data with Graphs...

Delerius Weather Station Historical Data
Daily Summary for December 31, 2017 Units:  English    Metric   Both
« Previous Day
Next Day »
Daily Weekly Monthly Yearly Custom
  High: Low: Average:
Temperature: 53.2 °F 40.5 °F 46.8 °F
Dew Point: 49.5 °F 37.7 °F 41.3 °F
Humidity: 96 % 66 % 82 %
Wind Speed: 24.0 mph 0.0 mph 13.1 mph
Wind Gust: 39.0 mph - -
Wind:- - SW
Pressure: 29.32 in 29.10 in -
Precipitation: 0.14 in    
Historical Graphs
 
 
Tabular Data for December 31, 2017
Time Temperature Dew Point Pressure Wind Wind Speed Wind Gust Humidity Rainfall Rate (Hourly) solar Conditions
00:04 46.6 °F 41.4 °F 29.32 in South 4.0 mph 7.0 mph 82 % 0.00 in 0 W/m2
00:09 46.6 °F 41.4 °F 29.32 in SSE 4.0 mph 7.0 mph 82 % 0.00 in 0 W/m2
00:14 46.4 °F 41.2 °F 29.31 in SE 6.0 mph 9.0 mph 82 % 0.00 in 0 W/m2
00:15 46.4 °F 41.2 °F 29.31 in SE 6.0 mph 9.0 mph 82 % 0.00 in 0 W/m2
00:20 46.4 °F 41.2 °F 29.32 in SSE 6.0 mph 8.0 mph 82 % 0.00 in 0 W/m2
00:24 46.4 °F 41.2 °F 29.31 in SE 4.0 mph 7.0 mph 82 % 0.00 in 0 W/m2
00:27 46.2 °F 41.3 °F 29.31 in SE 3.0 mph 8.0 mph 83 % 0.00 in 0 W/m2
00:31 46.2 °F 41.3 °F 29.30 in ESE 5.0 mph 10.0 mph 83 % 0.00 in 0 W/m2
00:33 46.2 °F 41.3 °F 29.30 in ESE 6.0 mph 9.0 mph 83 % 0.00 in 0 W/m2
00:38 46.0 °F 41.2 °F 29.30 in SE 6.0 mph 10.0 mph 83 % 0.00 in 0 W/m2
00:43 46.0 °F 41.5 °F 29.29 in SSE 6.0 mph 9.0 mph 84 % 0.00 in 0 W/m2
00:46 46.0 °F 41.5 °F 29.28 in SE 7.0 mph 11.0 mph 84 % 0.00 in 0 W/m2
00:51 45.9 °F 41.9 °F 29.28 in SSE 9.0 mph 14.0 mph 86 % 0.00 in 0 W/m2
00:55 45.7 °F 42.0 °F 29.29 in SSE 5.0 mph 11.0 mph 87 % 0.00 in 0 W/m2
00:58 45.7 °F 42.0 °F 29.28 in South 6.0 mph 9.0 mph 87 % 0.00 in 0 W/m2
01:00 45.5 °F 42.2 °F 29.28 in SSE 7.0 mph 13.0 mph 88 % 0.00 in 0 W/m2
01:05 45.3 °F 42.3 °F 29.26 in SE 9.0 mph 13.0 mph 89 % 0.01 in 0 W/m2
01:10 45.1 °F 42.4 °F 29.25 in SE 9.0 mph 14.0 mph 90 % 0.02 in 0 W/m2
01:15 45.0 °F 42.5 °F 29.25 in SE 10.0 mph 15.0 mph 91 % 0.02 in 0 W/m2
01:16 45.0 °F 42.5 °F 29.25 in SE 10.0 mph 15.0 mph 91 % 0.02 in 0 W/m2
01:21 44.8 °F 42.6 °F 29.24 in SE 9.0 mph 14.0 mph 92 % 0.03 in 0 W/m2
01:22 44.8 °F 42.6 °F 29.24 in SE 9.0 mph 14.0 mph 92 % 0.03 in 0 W/m2
01:27 44.8 °F 42.6 °F 29.23 in SE 10.0 mph 14.0 mph 92 % 0.04 in 0 W/m2
01:32 44.6 °F 42.7 °F 29.22 in SE 8.0 mph 14.0 mph 93 % 0.05 in 0 W/m2
01:34 44.6 °F 42.7 °F 29.23 in SE 8.0 mph 14.0 mph 93 % 0.05 in 0 W/m2
01:35 44.6 °F 42.7 °F 29.23 in SE 9.0 mph 16.0 mph 93 % 0.05 in 0 W/m2
01:40 44.6 °F 42.7 °F 29.22 in SSE 8.0 mph 12.0 mph 93 % 0.06 in 0 W/m2
01:45 44.6 °F 43.0 °F 29.22 in SSE 8.0 mph 14.0 mph 94 % 0.06 in 0 W/m2
01:48 44.6 °F 43.0 °F 29.22 in SSE 7.0 mph 15.0 mph 94 % 0.06 in 0 W/m2
01:53 44.8 °F 43.2 °F 29.21 in SSE 10.0 mph 14.0 mph 94 % 0.06 in 0 W/m2
01:54 44.8 °F 43.2 °F 29.21 in SSE 9.0 mph 13.0 mph 94 % 0.06 in 0 W/m2
01:59 44.8 °F 43.2 °F 29.21 in SSE 8.0 mph 14.0 mph 94 % 0.06 in 0 W/m2
02:00 44.8 °F 43.2 °F 29.20 in SSE 9.0 mph 14.0 mph 94 % 0.06 in 0 W/m2
02:05 44.8 °F 43.2 °F 29.21 in SSE 8.0 mph 11.0 mph 94 % 0.06 in 0 W/m2
02:10 44.8 °F 43.2 °F 29.20 in South 6.0 mph 12.0 mph 94 % 0.05 in 0 W/m2
02:11 44.8 °F 43.4 °F 29.20 in South 7.0 mph 12.0 mph 95 % 0.05 in 0 W/m2
02:14 44.8 °F 43.4 °F 29.20 in South 9.0 mph 14.0 mph 95 % 0.04 in 0 W/m2
02:19 45.0 °F 43.6 °F 29.20 in South 8.0 mph 14.0 mph 95 % 0.04 in 0 W/m2
02:21 45.0 °F 43.6 °F 29.20 in South 8.0 mph 15.0 mph 95 % 0.04 in 0 W/m2
02:24 45.1 °F 43.8 °F 29.20 in South 9.0 mph 19.0 mph 95 % 0.03 in 0 W/m2
02:27 45.1 °F 43.8 °F 29.20 in SSW 7.0 mph 18.0 mph 95 % 0.02 in 0 W/m2
02:30 45.3 °F 44.0 °F 29.20 in SSW 7.0 mph 12.0 mph 95 % 0.02 in 0 W/m2
02:32 45.3 °F 44.0 °F 29.20 in SSW 7.0 mph 12.0 mph 95 % 0.02 in 0 W/m2
02:37 45.7 °F 44.3 °F 29.19 in SSW 7.0 mph 11.0 mph 95 % 0.02 in 0 W/m2
02:38 45.7 °F 44.3 °F 29.19 in SSW 7.0 mph 10.0 mph 95 % 0.02 in 0 W/m2
02:40 45.7 °F 44.3 °F 29.19 in South 7.0 mph 10.0 mph 95 % 0.02 in 0 W/m2
02:43 45.9 °F 44.5 °F 29.18 in South 7.0 mph 10.0 mph 95 % 0.02 in 0 W/m2
02:48 46.0 °F 45.0 °F 29.17 in South 9.0 mph 16.0 mph 96 % 0.02 in 0 W/m2
02:51 46.2 °F 45.1 °F 29.17 in SSW 7.0 mph 15.0 mph 96 % 0.02 in 0 W/m2
02:55 46.6 °F 45.5 °F 29.17 in SSW 9.0 mph 13.0 mph 96 % 0.02 in 0 W/m2
03:00 47.1 °F 46.0 °F 29.18 in SW 9.0 mph 14.0 mph 96 % 0.02 in 0 W/m2
03:05 47.7 °F 46.6 °F 29.17 in SW 7.0 mph 14.0 mph 96 % 0.02 in 0 W/m2
03:06 47.8 °F 46.8 °F 29.17 in SW 9.0 mph 14.0 mph 96 % 0.02 in 0 W/m2
03:07 47.8 °F 46.8 °F 29.17 in SW 9.0 mph 14.0 mph 96 % 0.02 in 0 W/m2
03:14 48.7 °F 47.7 °F 29.17 in SW 11.0 mph 18.0 mph 96 % 0.02 in 0 W/m2
03:21 49.6 °F 48.5 °F 29.17 in WSW 13.0 mph 21.0 mph 96 % 0.01 in 0 W/m2
03:23 49.8 °F 48.7 °F 29.16 in WSW 13.0 mph 21.0 mph 96 % 0.01 in 0 W/m2
03:24 50.0 °F 48.9 °F 29.16 in WSW 12.0 mph 21.0 mph 96 % 0.01 in 0 W/m2
03:29 50.7 °F 49.3 °F 29.16 in WSW 17.0 mph 27.0 mph 95 % 0.01 in 0 W/m2
03:30 50.9 °F 49.5 °F 29.16 in WSW 17.0 mph 27.0 mph 95 % 0.01 in 0 W/m2
03:37 51.6 °F 49.4 °F 29.15 in WSW 14.0 mph 23.0 mph 92 % 0.00 in 0 W/m2
03:38 51.6 °F 49.1 °F 29.16 in WSW 15.0 mph 29.0 mph 91 % 0.00 in 0 W/m2
03:43 52.2 °F 49.0 °F 29.15 in WSW 18.0 mph 31.0 mph 89 % 0.00 in 0 W/m2
03:44 52.2 °F 49.0 °F 29.15 in WSW 19.0 mph 31.0 mph 89 % 0.00 in 0 W/m2
03:49 52.3 °F 48.9 °F 29.15 in WSW 14.0 mph 21.0 mph 88 % 0.00 in 0 W/m2
03:54 52.5 °F 48.8 °F 29.14 in WSW 16.0 mph 26.0 mph 87 % 0.00 in 0 W/m2
03:55 52.5 °F 48.8 °F 29.14 in SW 14.0 mph 26.0 mph 87 % 0.00 in 0 W/m2
04:00 52.5 °F 48.8 °F 29.14 in WSW 13.0 mph 22.0 mph 87 % 0.00 in 0 W/m2
04:04 52.5 °F 48.5 °F 29.14 in WSW 18.0 mph 26.0 mph 86 % 0.00 in 0 W/m2
04:09 52.5 °F 48.5 °F 29.15 in WSW 16.0 mph 25.0 mph 86 % 0.00 in 0 W/m2
04:12 52.5 °F 48.5 °F 29.15 in WSW 15.0 mph 25.0 mph 86 % 0.00 in 0 W/m2
04:17 52.5 °F 48.1 °F 29.15 in WSW 17.0 mph 24.0 mph 85 % 0.00 in 0 W/m2
04:18 52.5 °F 48.1 °F 29.14 in WSW 17.0 mph 24.0 mph 85 % 0.00 in 0 W/m2
04:19 52.5 °F 48.1 °F 29.14 in SW 16.0 mph 22.0 mph 85 % 0.00 in 0 W/m2
04:24 52.5 °F 48.1 °F 29.15 in WSW 17.0 mph 32.0 mph 85 % 0.00 in 0 W/m2
04:25 52.5 °F 48.1 °F 29.14 in WSW 17.0 mph 32.0 mph 85 % 0.00 in 0 W/m2
04:30 52.9 °F 48.2 °F 29.14 in SW 19.0 mph 29.0 mph 84 % 0.00 in 0 W/m2
04:31 52.9 °F 48.2 °F 29.14 in SW 20.0 mph 29.0 mph 84 % 0.00 in 0 W/m2
04:36 52.9 °F 48.2 °F 29.13 in SW 19.0 mph 37.0 mph 84 % 0.00 in 0 W/m2
04:38 52.9 °F 47.9 °F 29.12 in SW 19.0 mph 37.0 mph 83 % 0.00 in 0 W/m2
04:39 52.9 °F 47.9 °F 29.12 in SW 19.0 mph 29.0 mph 83 % 0.00 in 0 W/m2
04:43 53.1 °F 48.0 °F 29.12 in SW 22.0 mph 39.0 mph 83 % 0.00 in 0 W/m2
04:46 53.2 °F 47.9 °F 29.11 in SW 22.0 mph 32.0 mph 82 % 0.00 in 0 W/m2
04:48 53.2 °F 47.9 °F 29.12 in SW 18.0 mph 29.0 mph 82 % 0.00 in 0 W/m2
04:53 53.2 °F 48.2 °F 29.13 in WSW 17.0 mph 28.0 mph 83 % 0.00 in 0 W/m2
04:58 53.2 °F 47.9 °F 29.14 in WSW 15.0 mph 28.0 mph 82 % 0.00 in 0 W/m2
04:59 53.2 °F 47.9 °F 29.14 in WSW 15.0 mph 28.0 mph 82 % 0.00 in 0 W/m2
05:04 53.2 °F 47.9 °F 29.13 in WSW 14.0 mph 21.0 mph 82 % 0.00 in 0 W/m2
05:09 53.2 °F 47.9 °F 29.14 in WSW 14.0 mph 24.0 mph 82 % 0.00 in 0 W/m2
05:14 53.1 °F 47.4 °F 29.13 in SW 20.0 mph 35.0 mph 81 % 0.00 in 0 W/m2
05:15 53.1 °F 47.4 °F 29.13 in SW 21.0 mph 35.0 mph 81 % 0.00 in 0 W/m2
05:20 53.2 °F 47.2 °F 29.13 in SW 19.0 mph 32.0 mph 80 % 0.00 in 0 W/m2
05:25 53.2 °F 47.2 °F 29.13 in SW 21.0 mph 33.0 mph 80 % 0.00 in 0 W/m2
05:30 53.2 °F 46.9 °F 29.13 in SW 20.0 mph 32.0 mph 79 % 0.00 in 0 W/m2
05:31 53.1 °F 46.7 °F 29.13 in SW 20.0 mph 32.0 mph 79 % 0.00 in 0 W/m2
05:36 53.1 °F 46.7 °F 29.13 in SW 24.0 mph 37.0 mph 79 % 0.00 in 0 W/m2
05:37 53.1 °F 46.7 °F 29.13 in SW 23.0 mph 37.0 mph 79 % 0.00 in 0 W/m2
05:40 52.9 °F 46.5 °F 29.13 in WSW 20.0 mph 33.0 mph 79 % 0.00 in 0 W/m2
05:43 52.9 °F 46.2 °F 29.13 in WSW 17.0 mph 28.0 mph 78 % 0.00 in 0 W/m2
05:48 52.7 °F 46.0 °F 29.13 in WSW 24.0 mph 36.0 mph 78 % 0.00 in 0 W/m2
05:50 52.9 °F 46.2 °F 29.14 in WSW 22.0 mph 32.0 mph 78 % 0.00 in 0 W/m2
05:51 52.7 °F 45.7 °F 29.13 in WSW 21.0 mph 31.0 mph 77 % 0.00 in 0 W/m2
05:56 52.5 °F 45.5 °F 29.14 in WSW 19.0 mph 30.0 mph 77 % 0.00 in 0 W/m2
06:01 52.3 °F 45.3 °F 29.14 in SW 22.0 mph 39.0 mph 77 % 0.00 in 0 W/m2
06:04 52.3 °F 45.3 °F 29.14 in SW 18.0 mph 26.0 mph 77 % 0.00 in 0 W/m2
06:06 52.2 °F 45.2 °F 29.13 in SW 19.0 mph 35.0 mph 77 % 0.00 in 0 W/m2
06:09 52.2 °F 45.2 °F 29.13 in WSW 23.0 mph 33.0 mph 77 % 0.00 in 0 W/m2
06:14 52.0 °F 45.0 °F 29.13 in SW 18.0 mph 31.0 mph 77 % 0.00 in 0 W/m2
06:15 52.0 °F 45.0 °F 29.14 in SW 18.0 mph 28.0 mph 77 % 0.00 in 0 W/m2
06:20 52.0 °F 45.0 °F 29.13 in WSW 16.0 mph 23.0 mph 77 % 0.00 in 0 W/m2
06:26 51.8 °F 44.5 °F 29.14 in WSW 19.0 mph 29.0 mph 76 % 0.00 in 0 W/m2
06:31 51.6 °F 44.3 °F 29.14 in WSW 20.0 mph 31.0 mph 76 % 0.00 in 0 W/m2
06:35 51.6 °F 44.3 °F 29.14 in WSW 17.0 mph 29.0 mph 76 % 0.00 in 0 W/m2
06:36 51.6 °F 44.3 °F 29.14 in WSW 18.0 mph 29.0 mph 76 % 0.00 in 0 W/m2
06:41 51.6 °F 44.3 °F 29.15 in WSW 17.0 mph 30.0 mph 76 % 0.00 in 0 W/m2
06:42 51.4 °F 44.1 °F 29.15 in WSW 22.0 mph 35.0 mph 76 % 0.00 in 0 W/m2
06:47 51.4 °F 44.1 °F 29.15 in SW 21.0 mph 33.0 mph 76 % 0.00 in 0 W/m2
06:48 51.4 °F 44.1 °F 29.15 in WSW 23.0 mph 33.0 mph 76 % 0.00 in 0 W/m2
06:53 51.4 °F 44.1 °F 29.15 in WSW 15.0 mph 23.0 mph 76 % 0.00 in 0 W/m2
06:54 51.4 °F 44.1 °F 29.15 in WSW 15.0 mph 23.0 mph 76 % 0.00 in 0 W/m2
06:59 51.3 °F 44.3 °F 29.15 in WSW 16.0 mph 25.0 mph 77 % 0.00 in 0 W/m2
07:04 51.3 °F 44.0 °F 29.15 in WSW 21.0 mph 30.0 mph 76 % 0.00 in 0 W/m2
07:09 51.1 °F 43.8 °F 29.15 in WSW 16.0 mph 26.0 mph 76 % 0.00 in 0 W/m2
07:11 51.1 °F 43.4 °F 29.15 in WSW 17.0 mph 29.0 mph 75 % 0.00 in 0 W/m2
07:15 51.1 °F 43.1 °F 29.15 in WSW 18.0 mph 29.0 mph 74 % 0.00 in 0 W/m2
07:16 51.1 °F 43.1 °F 29.15 in WSW 17.0 mph 27.0 mph 74 % 0.00 in 0 W/m2
07:21 51.1 °F 42.7 °F 29.15 in WSW 20.0 mph 28.0 mph 73 % 0.00 in 0 W/m2
07:23 50.9 °F 42.6 °F 29.15 in WSW 18.0 mph 28.0 mph 73 % 0.00 in 0 W/m2
07:27 50.9 °F 42.9 °F 29.16 in WSW 18.0 mph 25.0 mph 74 % 0.00 in 0 W/m2
07:29 50.7 °F 42.7 °F 29.16 in WSW 18.0 mph 31.0 mph 74 % 0.00 in 0 W/m2
07:34 50.5 °F 42.6 °F 29.16 in WSW 17.0 mph 29.0 mph 74 % 0.00 in 0 W/m2
07:36 50.5 °F 42.2 °F 29.16 in WSW 16.0 mph 28.0 mph 73 % 0.00 in 0 W/m2
07:37 50.5 °F 42.2 °F 29.16 in WSW 18.0 mph 28.0 mph 73 % 0.00 in 0 W/m2
07:42 50.4 °F 40.6 °F 29.16 in WSW 21.0 mph 32.0 mph 69 % 0.00 in 0 W/m2
07:43 50.4 °F 40.6 °F 29.17 in WSW 20.0 mph 30.0 mph 69 % 0.00 in 0 W/m2
07:48 50.2 °F 39.6 °F 29.17 in WSW 23.0 mph 32.0 mph 67 % 0.00 in 0 W/m2
07:51 50.2 °F 39.3 °F 29.17 in WSW 19.0 mph 31.0 mph 66 % 0.00 in 0 W/m2
07:54 50.2 °F 39.6 °F 29.17 in WSW 15.0 mph 28.0 mph 67 % 0.00 in 0 W/m2
07:59 49.8 °F 39.3 °F 29.17 in WSW 20.0 mph 31.0 mph 67 % 0.00 in 0 W/m2
08:00 49.8 °F 39.3 °F 29.17 in WSW 16.0 mph 27.0 mph 67 % 0.00 in 0 W/m2
08:03 49.6 °F 39.5 °F 29.17 in WSW 19.0 mph 31.0 mph 68 % 0.00 in 0 W/m2
08:08 49.5 °F 39.7 °F 29.17 in WSW 17.0 mph 30.0 mph 69 % 0.00 in 0 W/m2
08:10 49.3 °F 39.5 °F 29.17 in WSW 21.0 mph 30.0 mph 69 % 0.00 in 0 W/m2
08:11 49.3 °F 39.5 °F 29.17 in WSW 22.0 mph 30.0 mph 69 % 0.00 in 0 W/m2
08:16 49.1 °F 39.7 °F 29.18 in WSW 18.0 mph 32.0 mph 70 % 0.00 in 0 W/m2
08:19 48.9 °F 39.6 °F 29.18 in WSW 18.0 mph 30.0 mph 70 % 0.00 in 0 W/m2
08:24 48.7 °F 39.4 °F 29.18 in WSW 21.0 mph 32.0 mph 70 % 0.00 in 0 W/m2
08:29 48.6 °F 39.2 °F 29.19 in WSW 17.0 mph 27.0 mph 70 % 0.00 in 5 W/m2
08:33 48.4 °F 39.0 °F 29.19 in WSW 19.0 mph 26.0 mph 70 % 0.00 in 7 W/m2
08:38 48.2 °F 38.9 °F 29.19 in WSW 21.0 mph 29.0 mph 70 % 0.00 in 12 W/m2
08:43 48.0 °F 38.7 °F 29.19 in WSW 17.0 mph 29.0 mph 70 % 0.00 in 14 W/m2
08:48 47.8 °F 38.9 °F 29.19 in WSW 17.0 mph 26.0 mph 71 % 0.00 in 12 W/m2
08:52 47.7 °F 39.1 °F 29.19 in WSW 14.0 mph 24.0 mph 72 % 0.00 in 11 W/m2
08:56 47.7 °F 38.7 °F 29.19 in WSW 14.0 mph 20.0 mph 71 % 0.00 in 9 W/m2
09:01 47.7 °F 38.7 °F 29.19 in WSW 16.0 mph 23.0 mph 71 % 0.00 in 12 W/m2
09:02 47.5 °F 38.5 °F 29.19 in WSW 15.0 mph 23.0 mph 71 % 0.00 in 12 W/m2
09:07 47.7 °F 38.4 °F 29.19 in WSW 15.0 mph 21.0 mph 70 % 0.00 in 14 W/m2
09:09 47.5 °F 38.2 °F 29.19 in SW 17.0 mph 31.0 mph 70 % 0.00 in 16 W/m2
09:12 47.5 °F 38.2 °F 29.19 in WSW 15.0 mph 25.0 mph 70 % 0.00 in 18 W/m2
09:17 47.5 °F 38.5 °F 29.19 in WSW 20.0 mph 29.0 mph 71 % 0.00 in 26 W/m2
09:19 47.5 °F 38.5 °F 29.19 in WSW 19.0 mph 28.0 mph 71 % 0.00 in 30 W/m2
09:24 47.5 °F 38.5 °F 29.19 in WSW 17.0 mph 27.0 mph 71 % 0.00 in 30 W/m2
09:25 47.5 °F 38.5 °F 29.19 in WSW 17.0 mph 27.0 mph 71 % 0.00 in 30 W/m2
09:27 47.5 °F 38.5 °F 29.19 in WSW 18.0 mph 28.0 mph 71 % 0.00 in 32 W/m2
09:31 47.5 °F 38.5 °F 29.19 in WSW 19.0 mph 30.0 mph 71 % 0.00 in 32 W/m2
09:36 47.3 °F 38.7 °F 29.19 in WSW 17.0 mph 30.0 mph 72 % 0.00 in 30 W/m2
09:41 47.3 °F 38.7 °F 29.19 in WSW 17.0 mph 26.0 mph 72 % 0.00 in 28 W/m2
09:43 47.3 °F 38.7 °F 29.19 in WSW 19.0 mph 30.0 mph 72 % 0.00 in 32 W/m2
09:48 47.5 °F 38.9 °F 29.19 in WSW 20.0 mph 31.0 mph 72 % 0.00 in 37 W/m2
09:50 47.5 °F 38.9 °F 29.19 in WSW 21.0 mph 31.0 mph 72 % 0.00 in 37 W/m2
09:55 47.5 °F 38.9 °F 29.19 in WSW 17.0 mph 27.0 mph 72 % 0.00 in 40 W/m2
09:56 47.5 °F 38.9 °F 29.19 in WSW 17.0 mph 23.0 mph 72 % 0.00 in 42 W/m2
10:01 47.5 °F 38.9 °F 29.19 in WSW 15.0 mph 28.0 mph 72 % 0.00 in 53 W/m2
10:02 47.3 °F 38.7 °F 29.19 in WSW 15.0 mph 28.0 mph 72 % 0.00 in 47 W/m2
10:07 47.3 °F 38.7 °F 29.19 in WSW 13.0 mph 20.0 mph 72 % 0.00 in 40 W/m2
10:08 47.3 °F 38.7 °F 29.19 in WSW 16.0 mph 25.0 mph 72 % 0.00 in 40 W/m2
10:13 47.3 °F 38.7 °F 29.19 in WSW 17.0 mph 27.0 mph 72 % 0.00 in 53 W/m2
10:18 47.3 °F 39.1 °F 29.19 in WSW 17.0 mph 26.0 mph 73 % 0.00 in 56 W/m2
10:20 47.3 °F 39.1 °F 29.19 in WSW 17.0 mph 26.0 mph 73 % 0.00 in 56 W/m2
10:21 47.3 °F 39.1 °F 29.19 in WSW 16.0 mph 23.0 mph 73 % 0.00 in 113 W/m2
10:25 47.3 °F 39.4 °F 29.19 in WSW 19.0 mph 25.0 mph 74 % 0.00 in 156 W/m2
10:30 47.5 °F 39.6 °F 29.19 in WSW 17.0 mph 28.0 mph 74 % 0.00 in 160 W/m2
10:34 47.7 °F 39.8 °F 29.19 in WSW 13.0 mph 20.0 mph 74 % 0.00 in 125 W/m2
10:36 47.7 °F 39.8 °F 29.19 in WSW 15.0 mph 25.0 mph 74 % 0.00 in 104 W/m2
10:41 47.8 °F 40.0 °F 29.18 in WSW 19.0 mph 28.0 mph 74 % 0.00 in 176 W/m2
10:43 48.0 °F 40.5 °F 29.19 in WSW 17.0 mph 28.0 mph 75 % 0.00 in 190 W/m2
10:47 48.4 °F 40.5 °F 29.18 in WSW 18.0 mph 29.0 mph 74 % 0.00 in 132 W/m2
10:52 48.4 °F 40.5 °F 29.18 in WSW 14.0 mph 21.0 mph 74 % 0.00 in 58 W/m2
10:53 48.2 °F 40.6 °F 29.18 in WSW 15.0 mph 28.0 mph 75 % 0.00 in 200 W/m2
10:58 48.4 °F 40.8 °F 29.18 in WSW 16.0 mph 28.0 mph 75 % 0.00 in 207 W/m2
10:59 48.4 °F 40.8 °F 29.18 in WSW 16.0 mph 28.0 mph 75 % 0.00 in 207 W/m2
11:00 48.4 °F 40.8 °F 29.18 in WSW 14.0 mph 24.0 mph 75 % 0.00 in 214 W/m2
11:04 48.6 °F 41.3 °F 29.18 in WSW 16.0 mph 27.0 mph 76 % 0.00 in 214 W/m2
11:09 48.7 °F 41.2 °F 29.18 in WSW 19.0 mph 25.0 mph 75 % 0.00 in 204 W/m2
11:14 48.9 °F 41.3 °F 29.19 in SW 19.0 mph 28.0 mph 75 % 0.00 in 230 W/m2
11:19 49.1 °F 40.8 °F 29.19 in WSW 17.0 mph 28.0 mph 73 % 0.00 in 236 W/m2
11:22 49.3 °F 41.0 °F 29.19 in WSW 19.0 mph 34.0 mph 73 % 0.00 in 237 W/m2
11:27 49.3 °F 40.6 °F 29.19 in SW 18.0 mph 31.0 mph 72 % 0.00 in 236 W/m2
11:29 49.5 °F 40.4 °F 29.19 in SW 20.0 mph 31.0 mph 71 % 0.00 in 239 W/m2
11:32 49.5 °F 39.7 °F 29.19 in WSW 21.0 mph 34.0 mph 69 % 0.00 in 239 W/m2
11:36 49.6 °F 39.9 °F 29.19 in WSW 15.0 mph 24.0 mph 69 % 0.00 in 243 W/m2
11:41 49.6 °F 39.5 °F 29.19 in WSW 19.0 mph 26.0 mph 68 % 0.00 in 246 W/m2
11:42 49.6 °F 39.5 °F 29.19 in WSW 19.0 mph 30.0 mph 68 % 0.00 in 243 W/m2
11:47 49.8 °F 39.3 °F 29.18 in WSW 19.0 mph 31.0 mph 67 % 0.00 in 248 W/m2
11:52 49.8 °F 39.3 °F 29.19 in WSW 17.0 mph 30.0 mph 67 % 0.00 in 244 W/m2
11:53 49.8 °F 39.3 °F 29.19 in WSW 19.0 mph 34.0 mph 67 % 0.00 in 246 W/m2
11:54 49.8 °F 39.3 °F 29.19 in SW 19.0 mph 34.0 mph 67 % 0.00 in 246 W/m2
11:59 49.8 °F 38.9 °F 29.19 in WSW 21.0 mph 36.0 mph 66 % 0.00 in 248 W/m2
12:00 49.8 °F 38.9 °F 29.19 in WSW 21.0 mph 36.0 mph 66 % 0.00 in 246 W/m2
12:04 49.8 °F 38.9 °F 29.19 in WSW 21.0 mph 37.0 mph 66 % 0.00 in 248 W/m2
12:07 49.8 °F 39.3 °F 29.18 in WSW 21.0 mph 30.0 mph 67 % 0.00 in 244 W/m2
12:12 49.8 °F 39.3 °F 29.18 in WSW 18.0 mph 27.0 mph 67 % 0.00 in 246 W/m2
12:17 49.8 °F 39.3 °F 29.18 in WSW 21.0 mph 31.0 mph 67 % 0.00 in 237 W/m2
12:18 49.8 °F 39.3 °F 29.18 in WSW 18.0 mph 28.0 mph 67 % 0.00 in 239 W/m2
12:23 50.0 °F 39.5 °F 29.18 in WSW 19.0 mph 28.0 mph 67 % 0.00 in 243 W/m2
12:25 50.0 °F 39.5 °F 29.18 in WSW 20.0 mph 32.0 mph 67 % 0.00 in 241 W/m2
12:30 50.0 °F 39.5 °F 29.18 in WSW 17.0 mph 25.0 mph 67 % 0.00 in 239 W/m2
12:35 49.8 °F 39.3 °F 29.19 in WSW 20.0 mph 31.0 mph 67 % 0.00 in 241 W/m2
12:36 49.8 °F 39.3 °F 29.19 in WSW 20.0 mph 31.0 mph 67 % 0.00 in 241 W/m2
12:37 49.8 °F 39.7 °F 29.19 in WSW 19.0 mph 29.0 mph 68 % 0.00 in 236 W/m2
12:42 50.0 °F 39.8 °F 29.19 in WSW 18.0 mph 26.0 mph 68 % 0.00 in 236 W/m2
12:43 50.0 °F 39.8 °F 29.19 in SW 19.0 mph 27.0 mph 68 % 0.00 in 234 W/m2
12:45 50.0 °F 40.2 °F 29.18 in SW 16.0 mph 27.0 mph 69 % 0.00 in 202 W/m2
12:49 49.8 °F 40.4 °F 29.18 in SW 15.0 mph 26.0 mph 70 % 0.00 in 132 W/m2
12:54 49.5 °F 40.4 °F 29.18 in SW 18.0 mph 27.0 mph 71 % 0.00 in 60 W/m2
12:56 49.3 °F 40.6 °F 29.18 in WSW 16.0 mph 23.0 mph 72 % 0.00 in 77 W/m2
13:01 48.9 °F 40.6 °F 29.19 in SW 14.0 mph 23.0 mph 73 % 0.00 in 102 W/m2
13:02 48.7 °F 40.5 °F 29.19 in SW 15.0 mph 23.0 mph 73 % 0.00 in 91 W/m2
13:07 48.7 °F 40.5 °F 29.19 in WSW 15.0 mph 24.0 mph 73 % 0.00 in 95 W/m2
13:09 48.7 °F 40.8 °F 29.19 in WSW 13.0 mph 23.0 mph 74 % 0.00 in 104 W/m2
13:14 48.7 °F 40.5 °F 29.19 in SW 19.0 mph 27.0 mph 73 % 0.00 in 181 W/m2
13:16 48.9 °F 41.0 °F 29.19 in WSW 17.0 mph 26.0 mph 74 % 0.00 in 169 W/m2
13:21 48.9 °F 40.6 °F 29.19 in WSW 13.0 mph 20.0 mph 73 % 0.00 in 142 W/m2
13:25 48.9 °F 41.0 °F 29.18 in WSW 17.0 mph 24.0 mph 74 % 0.00 in 171 W/m2
13:30 48.9 °F 40.6 °F 29.18 in SW 16.0 mph 22.0 mph 73 % 0.00 in 132 W/m2
13:35 48.9 °F 40.6 °F 29.18 in WSW 14.0 mph 24.0 mph 73 % 0.00 in 121 W/m2
13:36 48.9 °F 40.6 °F 29.18 in WSW 15.0 mph 24.0 mph 73 % 0.00 in 116 W/m2
13:40 48.9 °F 40.6 °F 29.18 in SW 15.0 mph 23.0 mph 73 % 0.00 in 116 W/m2
13:43 48.7 °F 40.8 °F 29.18 in SW 11.0 mph 19.0 mph 74 % 0.00 in 97 W/m2
13:46 48.7 °F 40.8 °F 29.18 in SW 14.0 mph 21.0 mph 74 % 0.00 in 100 W/m2
13:51 48.7 °F 40.8 °F 29.18 in WSW 17.0 mph 24.0 mph 74 % 0.00 in 95 W/m2
13:52 48.7 °F 40.8 °F 29.18 in WSW 16.0 mph 24.0 mph 74 % 0.00 in 98 W/m2
13:53 48.7 °F 40.8 °F 29.18 in WSW 15.0 mph 24.0 mph 74 % 0.00 in 95 W/m2
13:58 48.6 °F 40.6 °F 29.17 in WSW 15.0 mph 24.0 mph 74 % 0.00 in 72 W/m2
13:59 48.6 °F 40.6 °F 29.17 in WSW 15.0 mph 24.0 mph 74 % 0.00 in 72 W/m2
14:04 48.6 °F 40.6 °F 29.17 in SW 17.0 mph 27.0 mph 74 % 0.00 in 72 W/m2
14:05 48.6 °F 40.6 °F 29.17 in SW 17.0 mph 27.0 mph 74 % 0.00 in 72 W/m2
14:09 48.4 °F 40.5 °F 29.17 in SW 19.0 mph 30.0 mph 74 % 0.00 in 72 W/m2
14:14 48.4 °F 40.8 °F 29.16 in SW 16.0 mph 23.0 mph 75 % 0.00 in 84 W/m2
14:16 48.4 °F 40.8 °F 29.16 in SW 15.0 mph 23.0 mph 75 % 0.00 in 98 W/m2
14:21 48.4 °F 40.8 °F 29.16 in SW 14.0 mph 24.0 mph 75 % 0.00 in 67 W/m2
14:26 48.2 °F 40.6 °F 29.16 in WSW 14.0 mph 20.0 mph 75 % 0.00 in 77 W/m2
14:29 48.2 °F 40.6 °F 29.16 in WSW 13.0 mph 22.0 mph 75 % 0.00 in 76 W/m2
14:34 48.0 °F 40.5 °F 29.16 in WSW 13.0 mph 19.0 mph 75 % 0.00 in 63 W/m2
14:35 48.2 °F 40.6 °F 29.16 in WSW 12.0 mph 19.0 mph 75 % 0.00 in 62 W/m2
14:40 48.2 °F 40.6 °F 29.16 in SW 12.0 mph 19.0 mph 75 % 0.00 in 54 W/m2
14:45 48.0 °F 40.5 °F 29.16 in WSW 13.0 mph 22.0 mph 75 % 0.00 in 51 W/m2
14:46 48.0 °F 40.5 °F 29.16 in SW 14.0 mph 23.0 mph 75 % 0.00 in 49 W/m2
14:51 48.0 °F 40.5 °F 29.16 in SW 14.0 mph 21.0 mph 75 % 0.00 in 53 W/m2
14:52 48.2 °F 40.6 °F 29.16 in SW 11.0 mph 20.0 mph 75 % 0.00 in 53 W/m2
14:57 48.0 °F 40.5 °F 29.16 in WSW 9.0 mph 18.0 mph 75 % 0.00 in 53 W/m2
15:02 48.0 °F 40.5 °F 29.16 in SW 10.0 mph 19.0 mph 75 % 0.00 in 47 W/m2
15:04 48.0 °F 40.5 °F 29.15 in SW 10.0 mph 15.0 mph 75 % 0.00 in 40 W/m2
15:09 47.8 °F 40.6 °F 29.15 in SW 9.0 mph 15.0 mph 76 % 0.00 in 23 W/m2
15:10 47.8 °F 40.6 °F 29.15 in SW 10.0 mph 15.0 mph 76 % 0.00 in 21 W/m2
15:13 47.8 °F 40.6 °F 29.15 in SW 8.0 mph 12.0 mph 76 % 0.00 in 19 W/m2
15:15 47.8 °F 40.6 °F 29.15 in WSW 9.0 mph 12.0 mph 76 % 0.00 in 19 W/m2
15:20 47.7 °F 40.5 °F 29.15 in WSW 9.0 mph 16.0 mph 76 % 0.00 in 11 W/m2
15:25 47.8 °F 40.6 °F 29.15 in SW 8.0 mph 12.0 mph 76 % 0.00 in 9 W/m2
15:27 47.8 °F 41.0 °F 29.16 in SW 9.0 mph 14.0 mph 77 % 0.00 in 9 W/m2
15:29 47.8 °F 41.0 °F 29.15 in SW 10.0 mph 18.0 mph 77 % 0.00 in 9 W/m2
15:34 47.7 °F 41.1 °F 29.15 in SW 10.0 mph 19.0 mph 78 % 0.00 in 7 W/m2
15:36 47.7 °F 41.8 °F 29.15 in SW 14.0 mph 25.0 mph 80 % 0.00 in 5 W/m2
15:40 47.5 °F 41.9 °F 29.16 in SW 13.0 mph 20.0 mph 81 % 0.00 in 0 W/m2
15:45 47.1 °F 42.2 °F 29.15 in SW 10.0 mph 18.0 mph 83 % 0.00 in 0 W/m2
15:46 47.1 °F 42.2 °F 29.14 in SW 11.0 mph 15.0 mph 83 % 0.00 in 0 W/m2
15:51 46.6 °F 42.0 °F 29.14 in WSW 11.0 mph 22.0 mph 84 % 0.01 in 0 W/m2
15:56 46.2 °F 41.7 °F 29.13 in SW 12.0 mph 19.0 mph 84 % 0.01 in 0 W/m2
15:58 46.2 °F 41.7 °F 29.13 in SW 11.0 mph 19.0 mph 84 % 0.01 in 0 W/m2
16:03 46.0 °F 41.5 °F 29.14 in SW 12.0 mph 20.0 mph 84 % 0.01 in 0 W/m2
16:06 46.0 °F 41.5 °F 29.14 in SW 10.0 mph 16.0 mph 84 % 0.01 in 0 W/m2
16:11 45.9 °F 41.3 °F 29.13 in SW 10.0 mph 15.0 mph 84 % 0.01 in 0 W/m2
16:14 45.7 °F 40.8 °F 29.13 in SW 12.0 mph 20.0 mph 83 % 0.01 in 0 W/m2
16:19 45.5 °F 40.3 °F 29.14 in SW 14.0 mph 22.0 mph 82 % 0.01 in 0 W/m2
16:20 45.5 °F 40.3 °F 29.14 in SW 15.0 mph 25.0 mph 82 % 0.01 in 0 W/m2
16:23 45.3 °F 40.1 °F 29.14 in WSW 14.0 mph 22.0 mph 82 % 0.01 in 0 W/m2
16:26 45.1 °F 40.0 °F 29.14 in SW 15.0 mph 26.0 mph 82 % 0.01 in 0 W/m2
16:30 45.0 °F 39.8 °F 29.14 in SW 18.0 mph 25.0 mph 82 % 0.01 in 0 W/m2
16:33 44.8 °F 39.9 °F 29.14 in SW 13.0 mph 20.0 mph 83 % 0.01 in 0 W/m2
16:38 44.2 °F 39.7 °F 29.13 in SW 12.0 mph 20.0 mph 84 % 0.01 in 0 W/m2
16:40 44.2 °F 40.0 °F 29.13 in SW 11.0 mph 16.0 mph 85 % 0.01 in 0 W/m2
16:42 44.1 °F 39.8 °F 29.13 in SW 10.0 mph 16.0 mph 85 % 0.01 in 0 W/m2
16:46 44.1 °F 39.8 °F 29.13 in SW 9.0 mph 15.0 mph 85 % 0.00 in 0 W/m2
16:49 43.9 °F 39.7 °F 29.14 in SW 7.0 mph 13.0 mph 85 % 0.00 in 0 W/m2
16:51 43.9 °F 39.7 °F 29.14 in SW 7.0 mph 11.0 mph 85 % 0.00 in 0 W/m2
16:56 43.9 °F 39.7 °F 29.14 in SW 10.0 mph 15.0 mph 85 % 0.00 in 0 W/m2
16:57 43.9 °F 39.7 °F 29.14 in SW 10.0 mph 15.0 mph 85 % 0.00 in 0 W/m2
17:02 43.9 °F 39.7 °F 29.14 in SW 8.0 mph 14.0 mph 85 % 0.00 in 0 W/m2
17:04 43.9 °F 39.4 °F 29.14 in SW 7.0 mph 13.0 mph 84 % 0.00 in 0 W/m2
17:09 43.7 °F 39.5 °F 29.14 in SW 7.0 mph 10.0 mph 85 % 0.00 in 0 W/m2
17:12 43.7 °F 39.5 °F 29.13 in SW 5.0 mph 7.0 mph 85 % 0.00 in 0 W/m2
17:15 43.5 °F 39.3 °F 29.13 in SW 5.0 mph 8.0 mph 85 % 0.00 in 0 W/m2
17:20 43.5 °F 39.3 °F 29.13 in SW 2.0 mph 4.0 mph 85 % 0.00 in 0 W/m2
17:22 43.3 °F 39.1 °F 29.13 in SW 1.0 mph 2.0 mph 85 % 0.00 in 0 W/m2
17:27 43.3 °F 39.1 °F 29.13 in SW 6.0 mph 9.0 mph 85 % 0.00 in 0 W/m2
17:32 43.5 °F 39.3 °F 29.13 in SW 5.0 mph 7.0 mph 85 % 0.00 in 0 W/m2
17:35 43.5 °F 39.3 °F 29.13 in SW 3.0 mph 7.0 mph 85 % 0.00 in 0 W/m2
17:41 43.3 °F 39.1 °F 29.13 in SW 1.0 mph 2.0 mph 85 % 0.00 in 0 W/m2
17:42 43.3 °F 39.1 °F 29.13 in Calm     85 % 0.00 in 0 W/m2
17:47 43.2 °F 39.0 °F 29.13 in SW 2.0 mph 5.0 mph 85 % 0.00 in 0 W/m2
17:50 43.0 °F 38.8 °F 29.13 in SSW 4.0 mph 9.0 mph 85 % 0.00 in 0 W/m2
17:55 42.8 °F 38.9 °F 29.13 in South 5.0 mph 8.0 mph 86 % 0.00 in 0 W/m2
17:58 42.8 °F 39.2 °F 29.13 in SSW 6.0 mph 12.0 mph 87 % 0.00 in 0 W/m2
18:01 43.0 °F 39.4 °F 29.12 in SSW 6.0 mph 9.0 mph 87 % 0.00 in 0 W/m2
18:06 43.2 °F 39.6 °F 29.12 in SSW 8.0 mph 13.0 mph 87 % 0.00 in 0 W/m2
18:07 43.2 °F 39.6 °F 29.12 in South 8.0 mph 11.0 mph 87 % 0.00 in 0 W/m2
18:09 43.3 °F 39.7 °F 29.12 in SSW 8.0 mph 11.0 mph 87 % 0.00 in 0 W/m2
18:14 43.3 °F 39.7 °F 29.12 in SSW 7.0 mph 11.0 mph 87 % 0.00 in 0 W/m2
18:16 43.3 °F 39.7 °F 29.12 in SSW 6.0 mph 9.0 mph 87 % 0.00 in 0 W/m2
18:21 43.3 °F 39.7 °F 29.12 in SSW 8.0 mph 11.0 mph 87 % 0.00 in 0 W/m2
18:24 43.3 °F 39.7 °F 29.12 in SSW 8.0 mph 10.0 mph 87 % 0.00 in 0 W/m2
18:29 43.3 °F 39.7 °F 29.12 in SSW 7.0 mph 11.0 mph 87 % 0.00 in 0 W/m2
18:34 43.2 °F 39.8 °F 29.12 in SW 7.0 mph 9.0 mph 88 % 0.00 in 0 W/m2
18:37 43.2 °F 39.8 °F 29.12 in SW 8.0 mph 11.0 mph 88 % 0.00 in 0 W/m2
18:38 43.2 °F 39.8 °F 29.12 in SW 7.0 mph 11.0 mph 88 % 0.00 in 0 W/m2
18:43 43.2 °F 39.8 °F 29.12 in SW 6.0 mph 8.0 mph 88 % 0.00 in 0 W/m2
18:48 43.2 °F 40.1 °F 29.11 in SW 4.0 mph 7.0 mph 89 % 0.00 in 0 W/m2
18:49 43.3 °F 40.3 °F 29.11 in SW 4.0 mph 6.0 mph 89 % 0.00 in 0 W/m2
18:53 43.2 °F 40.1 °F 29.11 in SW 3.0 mph 5.0 mph 89 % 0.01 in 0 W/m2
18:57 43.2 °F 40.1 °F 29.11 in WSW 6.0 mph 10.0 mph 89 % 0.01 in 0 W/m2
19:02 43.3 °F 40.3 °F 29.11 in WSW 6.0 mph 8.0 mph 89 % 0.01 in 0 W/m2
19:04 43.3 °F 40.6 °F 29.11 in WSW 6.0 mph 8.0 mph 90 % 0.01 in 0 W/m2
19:09 43.2 °F 40.4 °F 29.11 in WSW 6.0 mph 9.0 mph 90 % 0.01 in 0 W/m2
19:10 43.2 °F 40.4 °F 29.12 in WSW 7.0 mph 9.0 mph 90 % 0.01 in 0 W/m2
19:15 43.2 °F 40.4 °F 29.12 in WSW 6.0 mph 11.0 mph 90 % 0.01 in 0 W/m2
19:17 43.2 °F 40.4 °F 29.12 in WSW 7.0 mph 11.0 mph 90 % 0.01 in 0 W/m2
19:22 43.3 °F 40.9 °F 29.12 in WSW 8.0 mph 15.0 mph 91 % 0.02 in 0 W/m2
19:26 43.5 °F 41.1 °F 29.13 in WSW 9.0 mph 18.0 mph 91 % 0.02 in 0 W/m2
19:29 43.3 °F 40.6 °F 29.12 in WSW 14.0 mph 23.0 mph 90 % 0.04 in 0 W/m2
19:34 42.8 °F 39.8 °F 29.11 in SW 13.0 mph 26.0 mph 89 % 0.05 in 0 W/m2
19:35 42.6 °F 39.6 °F 29.11 in SW 14.0 mph 26.0 mph 89 % 0.05 in 0 W/m2
19:40 42.4 °F 39.4 °F 29.10 in SW 8.0 mph 13.0 mph 89 % 0.05 in 0 W/m2
19:42 42.4 °F 39.7 °F 29.10 in SW 7.0 mph 11.0 mph 90 % 0.05 in 0 W/m2
19:44 42.3 °F 39.5 °F 29.10 in SW 7.0 mph 10.0 mph 90 % 0.05 in 0 W/m2
19:50 42.3 °F 39.5 °F 29.10 in WSW 9.0 mph 14.0 mph 90 % 0.05 in 0 W/m2
19:51 42.1 °F 39.4 °F 29.11 in WSW 9.0 mph 13.0 mph 90 % 0.04 in 0 W/m2
19:53 42.1 °F 39.4 °F 29.11 in WSW 9.0 mph 14.0 mph 90 % 0.04 in 0 W/m2
19:58 42.3 °F 39.2 °F 29.11 in WSW 10.0 mph 13.0 mph 89 % 0.04 in 0 W/m2
20:01 42.1 °F 39.1 °F 29.11 in WSW 9.0 mph 13.0 mph 89 % 0.04 in 0 W/m2
20:02 42.1 °F 39.1 °F 29.11 in WSW 9.0 mph 15.0 mph 89 % 0.04 in 0 W/m2
20:07 42.1 °F 39.1 °F 29.11 in SW 6.0 mph 10.0 mph 89 % 0.04 in 0 W/m2
20:09 42.1 °F 39.1 °F 29.12 in SW 6.0 mph 11.0 mph 89 % 0.04 in 0 W/m2
20:14 42.1 °F 39.1 °F 29.12 in WSW 4.0 mph 9.0 mph 89 % 0.04 in 0 W/m2
20:17 42.1 °F 39.1 °F 29.12 in WSW 6.0 mph 9.0 mph 89 % 0.04 in 0 W/m2
20:22 42.1 °F 39.1 °F 29.13 in WSW 7.0 mph 10.0 mph 89 % 0.03 in 0 W/m2
20:27 42.1 °F 39.1 °F 29.13 in SW 8.0 mph 12.0 mph 89 % 0.02 in 0 W/m2
20:29 42.1 °F 39.1 °F 29.13 in WSW 9.0 mph 14.0 mph 89 % 0.01 in 0 W/m2
20:34 42.1 °F 39.4 °F 29.14 in West 8.0 mph 11.0 mph 90 % 0.00 in 0 W/m2
20:36 42.3 °F 39.5 °F 29.14 in West 10.0 mph 21.0 mph 90 % 0.00 in 0 W/m2
20:41 42.1 °F 39.4 °F 29.15 in WSW 13.0 mph 22.0 mph 90 % 0.00 in 0 W/m2
20:43 42.1 °F 39.1 °F 29.15 in WSW 12.0 mph 21.0 mph 89 % 0.00 in 0 W/m2
20:48 41.7 °F 38.7 °F 29.15 in West 11.0 mph 18.0 mph 89 % 0.00 in 0 W/m2
20:53 41.5 °F 38.8 °F 29.15 in West 8.0 mph 13.0 mph 90 % 0.00 in 0 W/m2
20:58 41.4 °F 38.6 °F 29.15 in WNW 11.0 mph 18.0 mph 90 % 0.00 in 0 W/m2
21:03 41.2 °F 38.5 °F 29.16 in West 9.0 mph 16.0 mph 90 % 0.00 in 0 W/m2
21:04 41.2 °F 38.5 °F 29.16 in West 10.0 mph 16.0 mph 90 % 0.00 in 0 W/m2
21:09 41.0 °F 38.3 °F 29.16 in West 7.0 mph 11.0 mph 90 % 0.00 in 0 W/m2
21:14 40.8 °F 38.1 °F 29.16 in West 7.0 mph 10.0 mph 90 % 0.00 in 0 W/m2
21:18 40.8 °F 38.4 °F 29.16 in West 9.0 mph 15.0 mph 91 % 0.00 in 0 W/m2
21:23 40.6 °F 37.9 °F 29.16 in West 10.0 mph 14.0 mph 90 % 0.00 in 0 W/m2
21:28 40.6 °F 38.2 °F 29.16 in West 7.0 mph 10.0 mph 91 % 0.00 in 0 W/m2
21:29 40.6 °F 38.2 °F 29.16 in West 7.0 mph 10.0 mph 91 % 0.00 in 0 W/m2
21:34 40.6 °F 38.2 °F 29.16 in West 8.0 mph 12.0 mph 91 % 0.00 in 0 W/m2
21:36 40.6 °F 38.2 °F 29.16 in West 10.0 mph 14.0 mph 91 % 0.00 in 0 W/m2
21:38 40.5 °F 38.0 °F 29.16 in West 8.0 mph 13.0 mph 91 % 0.00 in 0 W/m2
21:43 40.5 °F 38.0 °F 29.16 in West 8.0 mph 12.0 mph 91 % 0.00 in 0 W/m2
21:48 40.5 °F 38.0 °F 29.16 in WSW 6.0 mph 10.0 mph 91 % 0.00 in 0 W/m2
21:53 40.5 °F 38.0 °F 29.16 in West 7.0 mph 12.0 mph 91 % 0.00 in 0 W/m2
21:58 40.6 °F 38.5 °F 29.17 in West 7.0 mph 13.0 mph 92 % 0.01 in 0 W/m2
21:59 40.6 °F 38.5 °F 29.17 in West 6.0 mph 10.0 mph 92 % 0.01 in 0 W/m2
22:03 40.8 °F 38.7 °F 29.17 in West 13.0 mph 20.0 mph 92 % 0.01 in 0 W/m2
22:04 40.8 °F 38.7 °F 29.17 in West 10.0 mph 16.0 mph 92 % 0.01 in 0 W/m2
22:09 41.2 °F 39.0 °F 29.18 in WNW 9.0 mph 13.0 mph 92 % 0.01 in 0 W/m2
22:10 41.2 °F 39.0 °F 29.18 in WNW 8.0 mph 13.0 mph 92 % 0.01 in 0 W/m2
22:15 41.5 °F 39.4 °F 29.18 in West 11.0 mph 18.0 mph 92 % 0.01 in 0 W/m2
22:16 41.5 °F 39.4 °F 29.18 in WNW 11.0 mph 18.0 mph 92 % 0.01 in 0 W/m2
22:21 41.7 °F 39.3 °F 29.19 in West 12.0 mph 22.0 mph 91 % 0.01 in 0 W/m2
22:23 41.7 °F 39.3 °F 29.19 in West 17.0 mph 28.0 mph 91 % 0.01 in 0 W/m2
22:26 41.7 °F 39.0 °F 29.19 in West 14.0 mph 26.0 mph 90 % 0.01 in 0 W/m2
22:30 41.5 °F 38.8 °F 29.19 in WNW 11.0 mph 16.0 mph 90 % 0.01 in 0 W/m2
22:31 41.5 °F 38.8 °F 29.19 in West 12.0 mph 20.0 mph 90 % 0.01 in 0 W/m2
22:36 41.5 °F 38.8 °F 29.20 in WNW 14.0 mph 21.0 mph 90 % 0.01 in 0 W/m2
22:41 41.5 °F 38.8 °F 29.20 in WNW 11.0 mph 18.0 mph 90 % 0.01 in 0 W/m2
22:42 41.5 °F 38.8 °F 29.20 in West 11.0 mph 19.0 mph 90 % 0.01 in 0 W/m2
22:47 41.7 °F 38.7 °F 29.21 in WNW 17.0 mph 25.0 mph 89 % 0.01 in 0 W/m2
22:49 41.7 °F 38.7 °F 29.21 in WNW 15.0 mph 23.0 mph 89 % 0.01 in 0 W/m2
22:55 41.9 °F 38.3 °F 29.22 in WNW 18.0 mph 26.0 mph 87 % 0.00 in 0 W/m2
22:56 41.9 °F 38.3 °F 29.22 in WNW 17.0 mph 29.0 mph 87 % 0.00 in 0 W/m2
23:01 41.9 °F 38.0 °F 29.22 in WNW 15.0 mph 23.0 mph 86 % 0.00 in 0 W/m2
23:03 42.1 °F 38.2 °F 29.22 in WNW 14.0 mph 25.0 mph 86 % 0.00 in 0 W/m2
23:04 41.9 °F 38.0 °F 29.22 in WNW 13.0 mph 25.0 mph 86 % 0.00 in 0 W/m2
23:09 41.9 °F 38.0 °F 29.23 in WNW 15.0 mph 25.0 mph 86 % 0.00 in 0 W/m2
23:12 41.9 °F 38.0 °F 29.23 in WNW 14.0 mph 25.0 mph 86 % 0.00 in 0 W/m2
23:17 41.7 °F 37.8 °F 29.23 in West 12.0 mph 21.0 mph 86 % 0.00 in 0 W/m2
23:22 41.7 °F 37.8 °F 29.23 in West 11.0 mph 18.0 mph 86 % 0.00 in 0 W/m2
23:27 41.7 °F 37.8 °F 29.23 in West 11.0 mph 19.0 mph 86 % 0.00 in 0 W/m2
23:28 41.7 °F 37.8 °F 29.23 in West 11.0 mph 19.0 mph 86 % 0.00 in 0 W/m2
23:33 41.5 °F 37.7 °F 29.23 in West 14.0 mph 21.0 mph 86 % 0.00 in 0 W/m2
23:36 41.5 °F 37.7 °F 29.23 in West 14.0 mph 20.0 mph 86 % 0.00 in 0 W/m2
23:39 41.7 °F 37.8 °F 29.24 in West 15.0 mph 25.0 mph 86 % 0.00 in 0 W/m2
23:42 41.7 °F 37.8 °F 29.24 in West 14.0 mph 22.0 mph 86 % 0.00 in 0 W/m2
23:47 41.7 °F 37.8 °F 29.25 in West 17.0 mph 25.0 mph 86 % 0.00 in 0 W/m2
23:48 41.7 °F 37.8 °F 29.25 in West 17.0 mph 25.0 mph 86 % 0.00 in 0 W/m2
23:53 41.7 °F 37.8 °F 29.25 in West 14.0 mph 25.0 mph 86 % 0.00 in 0 W/m2
23:57 41.7 °F 37.8 °F 29.25 in West 15.0 mph 22.0 mph 86 % 0.00 in 0 W/m2
Delerius-Weather
Compliments of Weather Underground - 3 mb

Data updates at regular intervals.